Time;durP1;ratioP1;P1;durP2;ratioP2;P2;SDS_P1;SDS_P2;PMS_P1;PMS_P2;Temp;Humidity;BMP_temperature;BMP_pressure;BME280_temperature;BME280_humidity;BME280_pressure;Samples;Min_cycle;Max_cycle;Signal;HPM_P1;HPM_P2
2024/03/16 00:01:52;;;;;;;;;2.00;0.00;;;;;;;;5077097;27;45325;-52
2024/03/16 00:04:17;;;;;;;;;2.00;1.00;;;;;;;;5071572;27;45505;-51
2024/03/16 00:06:43;;;;;;;;;3.67;1.00;;;;;;;;5076062;27;46194;-50
2024/03/16 00:09:08;;;;;;;;;1.00;0.00;;;;;;;;5075960;27;45377;-52
2024/03/16 00:11:33;;;;;;;;;1.00;1.00;;;;;;;;5073443;28;45404;-49
2024/03/16 00:14:00;;;;;;;;;0.67;0.00;;;;;;;;5075260;28;45403;-50
2024/03/16 00:16:25;;;;;;;;;1.67;0.00;;;;;;;;5077350;28;46342;-49
2024/03/16 00:18:50;;;;;;;;;1.33;0.00;;;;;;;;5077149;27;45514;-50
2024/03/16 00:21:16;;;;;;;;;1.00;1.00;;;;;;;;5068833;27;45413;-53
2024/03/16 00:23:41;;;;;;;;;2.00;1.00;;;;;;;;5077411;27;45390;-54
2024/03/16 00:26:07;;;;;;;;;0.00;0.00;;;;;;;;5084660;27;46354;-51
2024/03/16 00:28:33;;;;;;;;;0.00;0.00;;;;;;;;5083130;27;45357;-52
2024/03/16 00:30:58;;;;;;;;;0.00;0.00;;;;;;;;5095892;27;45358;-53
2024/03/16 00:33:23;;;;;;;;;0.67;0.00;;;;;;;;5091462;27;45540;-52
2024/03/16 00:35:48;;;;;;;;;1.00;0.00;;;;;;;;5085107;27;45426;-49
2024/03/16 00:38:14;;;;;;;;;0.00;0.00;;;;;;;;5089436;27;45472;-52
2024/03/16 00:40:39;;;;;;;;;1.00;0.00;;;;;;;;5095847;27;45614;-52
2024/03/16 00:43:05;;;;;;;;;1.00;0.00;;;;;;;;5092452;27;45323;-50
2024/03/16 00:45:30;;;;;;;;;0.00;0.00;;;;;;;;5086721;27;45710;-48
2024/03/16 00:47:56;;;;;;;;;0.00;0.00;;;;;;;;5090624;27;45258;-51
2024/03/16 00:50:21;;;;;;;;;0.00;0.00;;;;;;;;5078018;27;45392;-51
2024/03/16 00:52:46;;;;;;;;;0.00;0.00;;;;;;;;5085136;27;45255;-51
2024/03/16 00:55:11;;;;;;;;;0.00;0.00;;;;;;;;5089973;27;46435;-50
2024/03/16 00:57:37;;;;;;;;;0.00;0.00;;;;;;;;5091456;27;45401;-51
2024/03/16 01:00:03;;;;;;;;;1.00;0.00;;;;;;;;5088378;27;45250;-52
2024/03/16 01:02:29;;;;;;;;;0.00;0.00;;;;;;;;5090903;27;45354;-49
2024/03/16 01:04:55;;;;;;;;;0.00;0.00;;;;;;;;5089393;27;46788;-50
2024/03/16 01:07:20;;;;;;;;;0.00;0.00;;;;;;;;5085501;27;45402;-49
2024/03/16 01:09:45;;;;;;;;;1.00;0.00;;;;;;;;5096843;27;45410;-52
2024/03/16 01:12:10;;;;;;;;;0.00;0.00;;;;;;;;5081880;27;45393;-51
2024/03/16 01:14:35;;;;;;;;;1.00;0.00;;;;;;;;5096843;27;46250;-49
2024/03/16 01:17:01;;;;;;;;;1.00;0.00;;;;;;;;5078251;27;45581;-49
2024/03/16 01:19:26;;;;;;;;;1.33;1.00;;;;;;;;5092686;27;45581;-49
2024/03/16 01:21:51;;;;;;;;;0.00;0.00;;;;;;;;5079237;27;45399;-49
2024/03/16 01:24:17;;;;;;;;;0.00;0.00;;;;;;;;5094377;27;46071;-51
2024/03/16 01:26:42;;;;;;;;;0.00;0.00;;;;;;;;5094917;27;45266;-52
2024/03/16 01:29:10;;;;;;;;;0.00;0.00;;;;;;;;5088406;27;45501;-52
2024/03/16 01:31:35;;;;;;;;;0.00;0.00;;;;;;;;5095139;27;45438;-52
2024/03/16 01:34:01;;;;;;;;;0.00;0.00;;;;;;;;5082632;27;45334;-52
2024/03/16 01:36:26;;;;;;;;;0.00;0.00;;;;;;;;5087425;27;45691;-51
2024/03/16 01:38:51;;;;;;;;;0.00;0.00;;;;;;;;5094571;27;45565;-51
2024/03/16 01:41:16;;;;;;;;;0.00;0.00;;;;;;;;5081720;27;45619;-52
2024/03/16 01:43:45;;;;;;;;;0.00;0.00;;;;;;;;5085292;27;45426;-49
2024/03/16 01:46:15;;;;;;;;;0.00;0.00;;;;;;;;5087864;27;45516;-50
2024/03/16 01:48:40;;;;;;;;;0.00;0.00;;;;;;;;5085476;27;45483;-49
2024/03/16 01:51:07;;;;;;;;;0.00;0.00;;;;;;;;5072952;27;45458;-52
2024/03/16 01:53:33;;;;;;;;;0.67;0.00;;;;;;;;5088161;27;46864;-51
2024/03/16 01:55:58;;;;;;;;;0.00;0.00;;;;;;;;5085698;27;45226;-50
2024/03/16 01:58:23;;;;;;;;;2.00;0.00;;;;;;;;5097487;27;45382;-54
2024/03/16 02:00:48;;;;;;;;;0.00;0.00;;;;;;;;5093032;27;45484;-50
2024/03/16 02:03:13;;;;;;;;;0.00;0.00;;;;;;;;5085263;27;45333;-52
2024/03/16 02:05:41;;;;;;;;;0.00;0.00;;;;;;;;5084895;27;45437;-51
2024/03/16 02:08:06;;;;;;;;;0.00;0.00;;;;;;;;5081112;27;45425;-52
2024/03/16 02:10:31;;;;;;;;;2.00;0.00;;;;;;;;5093987;27;45370;-52
2024/03/16 02:12:57;;;;;;;;;0.00;0.00;;;;;;;;5080334;27;46591;-52
2024/03/16 02:15:22;;;;;;;;;0.00;0.00;;;;;;;;5084115;27;45244;-51
2024/03/16 02:17:47;;;;;;;;;0.00;0.00;;;;;;;;5095380;27;45540;-52
2024/03/16 02:20:15;;;;;;;;;0.00;0.00;;;;;;;;5088399;27;45453;-52
2024/03/16 02:22:43;;;;;;;;;0.00;0.00;;;;;;;;5073669;27;46523;-52
2024/03/16 02:25:11;;;;;;;;;0.00;0.00;;;;;;;;5078087;27;45643;-51
2024/03/16 02:27:37;;;;;;;;;0.00;0.00;;;;;;;;5076692;27;45791;-50
2024/03/16 02:30:03;;;;;;;;;0.00;0.00;;;;;;;;5090011;27;45344;-52
2024/03/16 02:32:28;;;;;;;;;0.00;0.00;;;;;;;;5087557;27;45341;-52
2024/03/16 02:34:53;;;;;;;;;0.00;0.00;;;;;;;;5088902;27;45317;-51
2024/03/16 02:37:19;;;;;;;;;0.00;0.00;;;;;;;;5088218;27;45645;-51
2024/03/16 02:39:44;;;;;;;;;0.00;0.00;;;;;;;;5079466;27;45294;-52
2024/03/16 02:42:09;;;;;;;;;0.00;0.00;;;;;;;;5087906;27;45588;-51
2024/03/16 02:44:35;;;;;;;;;2.33;0.00;;;;;;;;5073690;27;45465;-49
2024/03/16 02:47:00;;;;;;;;;0.00;0.00;;;;;;;;5080039;27;45575;-52
2024/03/16 02:49:25;;;;;;;;;0.00;0.00;;;;;;;;5081413;27;45442;-50
2024/03/16 02:51:51;;;;;;;;;1.67;0.00;;;;;;;;5083621;27;45432;-49
2024/03/16 02:54:16;;;;;;;;;0.00;0.00;;;;;;;;5085661;27;45274;-52
2024/03/16 02:56:41;;;;;;;;;0.00;0.00;;;;;;;;5087465;27;45232;-51
2024/03/16 02:59:07;;;;;;;;;0.00;0.00;;;;;;;;5084942;27;45196;-50
2024/03/16 03:01:33;;;;;;;;;2.00;0.00;;;;;;;;5075330;27;46330;-49
2024/03/16 03:03:58;;;;;;;;;0.00;0.00;;;;;;;;5084617;27;45379;-52
2024/03/16 03:06:27;;;;;;;;;1.00;0.00;;;;;;;;5089219;27;45270;-51
2024/03/16 03:08:52;;;;;;;;;0.00;0.00;;;;;;;;5091529;27;45530;-52
2024/03/16 03:11:17;;;;;;;;;1.00;0.00;;;;;;;;5086716;27;46191;-49
2024/03/16 03:13:44;;;;;;;;;0.00;0.00;;;;;;;;5077777;27;45395;-51
2024/03/16 03:16:09;;;;;;;;;0.00;0.00;;;;;;;;5093149;27;45447;-51
2024/03/16 03:18:34;;;;;;;;;0.00;0.00;;;;;;;;5075177;27;45495;-48
2024/03/16 03:21:00;;;;;;;;;0.67;0.00;;;;;;;;5080400;27;46252;-48
2024/03/16 03:23:25;;;;;;;;;1.00;0.00;;;;;;;;5088216;27;45289;-52
2024/03/16 03:25:50;;;;;;;;;0.00;0.00;;;;;;;;5096503;27;45686;-51
2024/03/16 03:28:15;;;;;;;;;0.00;0.00;;;;;;;;5089633;27;45231;-48
2024/03/16 03:30:41;;;;;;;;;0.00;0.00;;;;;;;;5083392;27;45446;-49
2024/03/16 03:33:07;;;;;;;;;0.00;0.00;;;;;;;;5082020;27;45708;-53
2024/03/16 03:35:34;;;;;;;;;0.00;0.00;;;;;;;;5082399;27;45433;-51
2024/03/16 03:37:59;;;;;;;;;0.00;0.00;;;;;;;;5090030;27;45317;-49
2024/03/16 03:40:25;;;;;;;;;0.00;0.00;;;;;;;;5089473;27;45467;-50
2024/03/16 03:42:55;;;;;;;;;0.00;0.00;;;;;;;;5080193;27;45451;-51
2024/03/16 03:45:49;;;;;;;;;0.00;0.00;;;;;;;;5085553;27;45332;-49
2024/03/16 03:50:53;;;;;;;;;0.00;0.00;;;;;;;;5076226;27;45612;-51
2024/03/16 03:53:19;;;;;;;;;0.00;0.00;;;;;;;;5095512;27;45375;-52
2024/03/16 03:55:44;;;;;;;;;0.00;0.00;;;;;;;;5087405;27;45569;-51
2024/03/16 03:58:09;;;;;;;;;0.00;0.00;;;;;;;;5094244;27;45546;-49
2024/03/16 04:00:35;;;;;;;;;0.00;0.00;;;;;;;;5087429;27;46561;-53
2024/03/16 04:03:00;;;;;;;;;0.00;0.00;;;;;;;;5086082;27;45598;-51
2024/03/16 04:05:26;;;;;;;;;0.00;0.00;;;;;;;;5081535;27;45461;-52
2024/03/16 04:07:52;;;;;;;;;0.00;0.00;;;;;;;;5076260;27;45351;-50
2024/03/16 04:10:17;;;;;;;;;0.00;0.00;;;;;;;;5091617;27;45312;-49
2024/03/16 04:12:42;;;;;;;;;0.00;0.00;;;;;;;;5089000;27;45367;-50
2024/03/16 04:15:07;;;;;;;;;0.00;0.00;;;;;;;;5084289;27;45527;-48
2024/03/16 04:17:32;;;;;;;;;0.00;0.00;;;;;;;;5086496;27;45318;-51
2024/03/16 04:19:57;;;;;;;;;0.00;0.00;;;;;;;;5090070;27;45657;-51
2024/03/16 04:22:23;;;;;;;;;0.00;0.00;;;;;;;;5087543;27;45368;-49
2024/03/16 04:24:48;;;;;;;;;0.00;0.00;;;;;;;;5089543;27;45337;-51
2024/03/16 04:27:13;;;;;;;;;0.00;0.00;;;;;;;;5081999;27;45439;-49
2024/03/16 04:29:38;;;;;;;;;0.00;0.00;;;;;;;;5091522;27;45842;-51
2024/03/16 04:32:03;;;;;;;;;0.00;0.00;;;;;;;;5094059;27;45681;-51
2024/03/16 04:34:29;;;;;;;;;0.00;0.00;;;;;;;;5090419;27;45773;-50
2024/03/16 04:36:54;;;;;;;;;0.00;0.00;;;;;;;;5086140;27;45578;-50
2024/03/16 04:39:22;;;;;;;;;0.00;0.00;;;;;;;;5087538;27;46446;-52
2024/03/16 04:41:48;;;;;;;;;0.00;0.00;;;;;;;;5089074;27;45219;-50
2024/03/16 04:44:13;;;;;;;;;0.67;0.00;;;;;;;;5080243;27;45433;-51
2024/03/16 04:46:38;;;;;;;;;0.00;0.00;;;;;;;;5079593;27;45484;-52
2024/03/16 04:49:04;;;;;;;;;0.00;0.00;;;;;;;;5090582;27;45550;-53
2024/03/16 04:51:30;;;;;;;;;0.00;0.00;;;;;;;;5095071;27;45399;-49
2024/03/16 04:53:56;;;;;;;;;0.00;0.00;;;;;;;;5088532;27;45327;-50
2024/03/16 04:56:22;;;;;;;;;0.00;0.00;;;;;;;;5086808;27;45822;-50
2024/03/16 04:58:47;;;;;;;;;0.00;0.00;;;;;;;;5094707;27;46988;-49
2024/03/16 05:01:13;;;;;;;;;0.00;0.00;;;;;;;;5081724;27;45369;-50
2024/03/16 05:03:38;;;;;;;;;0.00;0.00;;;;;;;;5080295;27;45343;-51
2024/03/16 05:06:04;;;;;;;;;0.00;0.00;;;;;;;;5083242;27;45504;-51
2024/03/16 05:08:29;;;;;;;;;0.00;0.00;;;;;;;;5088543;27;47160;-49
2024/03/16 05:10:54;;;;;;;;;0.00;0.00;;;;;;;;5092750;27;45351;-52
2024/03/16 05:13:19;;;;;;;;;0.00;0.00;;;;;;;;5078587;27;45381;-51
2024/03/16 05:15:45;;;;;;;;;0.00;0.00;;;;;;;;5088316;27;45562;-49
2024/03/16 05:18:10;;;;;;;;;0.00;0.00;;;;;;;;5090841;27;46163;-49
2024/03/16 05:20:35;;;;;;;;;0.00;0.00;;;;;;;;5083971;27;45304;-53
2024/03/16 05:23:00;;;;;;;;;0.00;0.00;;;;;;;;5088967;27;45797;-49
2024/03/16 05:25:26;;;;;;;;;0.00;0.00;;;;;;;;5089979;27;46626;-48
2024/03/16 05:27:51;;;;;;;;;0.00;0.00;;;;;;;;5080977;27;46587;-52
2024/03/16 05:30:16;;;;;;;;;0.00;0.00;;;;;;;;5084093;27;45324;-51
2024/03/16 05:32:42;;;;;;;;;0.33;0.00;;;;;;;;5094788;27;45393;-49
2024/03/16 05:35:08;;;;;;;;;0.00;0.00;;;;;;;;5087674;27;45351;-49
2024/03/16 05:37:33;;;;;;;;;0.00;0.00;;;;;;;;5087532;27;46993;-52
2024/03/16 05:39:59;;;;;;;;;0.00;0.00;;;;;;;;5084320;27;45463;-49
2024/03/16 05:42:24;;;;;;;;;0.00;0.00;;;;;;;;5081798;27;45561;-50
2024/03/16 05:44:50;;;;;;;;;0.00;0.00;;;;;;;;5087500;27;45152;-52
2024/03/16 05:47:20;;;;;;;;;0.00;0.00;;;;;;;;5092544;27;45409;-50
2024/03/16 05:49:46;;;;;;;;;0.00;0.00;;;;;;;;5081835;27;45474;-52
2024/03/16 05:52:11;;;;;;;;;0.00;0.00;;;;;;;;5087429;27;45408;-52
2024/03/16 05:54:36;;;;;;;;;0.00;0.00;;;;;;;;5084840;27;45230;-49
2024/03/16 05:57:01;;;;;;;;;0.00;0.00;;;;;;;;5084252;27;45444;-52
2024/03/16 05:59:26;;;;;;;;;0.00;0.00;;;;;;;;5087239;27;45334;-49
2024/03/16 06:01:52;;;;;;;;;0.00;0.00;;;;;;;;5085141;27;45589;-52
2024/03/16 06:04:19;;;;;;;;;0.00;0.00;;;;;;;;5085964;27;45491;-52
2024/03/16 06:06:46;;;;;;;;;0.00;0.00;;;;;;;;5081997;27;45668;-52
2024/03/16 06:09:11;;;;;;;;;0.00;0.00;;;;;;;;5075054;27;46245;-52
2024/03/16 06:11:36;;;;;;;;;0.00;0.00;;;;;;;;5082596;27;45397;-51
2024/03/16 06:14:02;;;;;;;;;0.00;0.00;;;;;;;;5093390;27;45381;-49
2024/03/16 06:16:27;;;;;;;;;0.00;0.00;;;;;;;;5087797;27;48031;-50
2024/03/16 06:18:52;;;;;;;;;0.00;0.00;;;;;;;;5081533;27;45378;-49
2024/03/16 06:21:18;;;;;;;;;0.00;0.00;;;;;;;;5074396;27;45487;-50
2024/03/16 06:23:43;;;;;;;;;0.00;0.00;;;;;;;;5092523;27;45352;-52
2024/03/16 06:26:16;;;;;;;;;0.00;0.00;;;;;;;;5095769;27;47357;-49
2024/03/16 06:28:43;;;;;;;;;0.00;0.00;;;;;;;;5078535;27;45640;-52
2024/03/16 06:31:10;;;;;;;;;0.00;0.00;;;;;;;;5077974;27;45495;-51
2024/03/16 06:33:36;;;;;;;;;0.00;0.00;;;;;;;;5079470;27;45706;-50
2024/03/16 06:36:01;;;;;;;;;1.00;0.00;;;;;;;;5075777;27;45662;-50
2024/03/16 06:38:29;;;;;;;;;2.00;0.00;;;;;;;;5084164;27;45267;-52
2024/03/16 06:40:54;;;;;;;;;0.00;0.00;;;;;;;;5089500;27;45509;-50
2024/03/16 06:43:20;;;;;;;;;0.00;0.00;;;;;;;;5095140;27;45229;-51
2024/03/16 06:45:45;;;;;;;;;0.00;0.00;;;;;;;;5090121;27;45414;-49
2024/03/16 06:48:10;;;;;;;;;0.00;0.00;;;;;;;;5095211;27;45471;-50
2024/03/16 06:50:36;;;;;;;;;0.00;0.00;;;;;;;;5087751;27;45218;-50
2024/03/16 06:53:01;;;;;;;;;0.00;0.00;;;;;;;;5079483;27;45742;-49
2024/03/16 06:55:26;;;;;;;;;0.00;0.00;;;;;;;;5069919;27;47266;-49
2024/03/16 06:57:52;;;;;;;;;0.00;0.00;;;;;;;;5080218;27;45917;-50
2024/03/16 07:00:17;;;;;;;;;0.67;0.00;;;;;;;;5077930;27;45669;-51
2024/03/16 07:02:42;;;;;;;;;0.00;0.00;;;;;;;;5078443;27;45387;-51
2024/03/16 07:05:07;;;;;;;;;0.00;0.00;;;;;;;;5078387;27;45550;-52
2024/03/16 07:07:33;;;;;;;;;0.00;0.00;;;;;;;;5085550;27;46881;-49
2024/03/16 07:09:58;;;;;;;;;0.00;0.00;;;;;;;;5084970;27;45535;-51
2024/03/16 07:12:23;;;;;;;;;0.00;0.00;;;;;;;;5082611;27;45543;-49
2024/03/16 07:14:48;;;;;;;;;0.00;0.00;;;;;;;;5072882;27;45670;-49
2024/03/16 07:17:13;;;;;;;;;1.00;0.67;;;;;;;;5078197;27;45275;-49
2024/03/16 07:19:39;;;;;;;;;0.00;0.00;;;;;;;;5073058;27;45594;-49
2024/03/16 07:22:04;;;;;;;;;0.00;0.00;;;;;;;;5076139;27;45361;-52
2024/03/16 07:24:29;;;;;;;;;0.67;0.00;;;;;;;;5074199;27;46355;-52
2024/03/16 07:26:54;;;;;;;;;2.00;1.00;;;;;;;;5080085;27;45377;-50
2024/03/16 07:29:20;;;;;;;;;2.00;1.00;;;;;;;;5076109;27;45309;-51
2024/03/16 07:31:45;;;;;;;;;1.33;1.00;;;;;;;;5072836;27;45769;-51
2024/03/16 07:34:10;;;;;;;;;0.00;0.00;;;;;;;;5077818;27;46351;-50
2024/03/16 07:36:35;;;;;;;;;0.00;0.00;;;;;;;;5079290;27;45658;-52
2024/03/16 07:39:01;;;;;;;;;2.33;1.67;;;;;;;;5081864;27;45257;-50
2024/03/16 07:41:26;;;;;;;;;1.00;1.00;;;;;;;;5089900;27;45520;-50
2024/03/16 07:43:51;;;;;;;;;2.00;2.00;;;;;;;;5081702;27;45441;-50
2024/03/16 07:46:16;;;;;;;;;0.33;0.33;;;;;;;;5080925;27;45563;-53
2024/03/16 07:48:41;;;;;;;;;0.33;0.33;;;;;;;;5081462;28;45420;-50
2024/03/16 07:51:06;;;;;;;;;0.00;0.00;;;;;;;;5087538;27;45220;-50
2024/03/16 07:53:32;;;;;;;;;1.00;0.00;;;;;;;;5084390;27;45621;-52
2024/03/16 07:55:58;;;;;;;;;1.00;1.00;;;;;;;;5080540;27;45290;-51
2024/03/16 07:58:23;;;;;;;;;1.00;1.00;;;;;;;;5078430;27;45476;-50
2024/03/16 08:00:48;;;;;;;;;0.67;0.67;;;;;;;;5079758;27;45517;-51
2024/03/16 08:03:14;;;;;;;;;0.67;0.67;;;;;;;;5080873;27;46463;-53
2024/03/16 08:05:39;;;;;;;;;0.67;0.00;;;;;;;;5082176;27;45221;-52
2024/03/16 08:08:04;;;;;;;;;0.00;0.00;;;;;;;;5077285;27;45384;-51
2024/03/16 08:10:29;;;;;;;;;1.67;0.00;;;;;;;;5080975;27;45313;-50
2024/03/16 08:12:54;;;;;;;;;0.33;0.33;;;;;;;;5080267;27;45532;-52
2024/03/16 08:15:21;;;;;;;;;1.00;1.00;;;;;;;;5081264;27;45420;-52
2024/03/16 08:17:46;;;;;;;;;2.00;2.00;;;;;;;;5081504;27;45352;-53
2024/03/16 08:20:12;;;;;;;;;2.00;2.00;;;;;;;;5076027;27;45661;-51
2024/03/16 08:22:37;;;;;;;;;1.00;1.00;;;;;;;;5066017;27;45599;-51
2024/03/16 08:25:02;;;;;;;;;1.00;1.00;;;;;;;;5082161;27;45364;-52
2024/03/16 08:27:27;;;;;;;;;0.00;0.00;;;;;;;;5084553;27;45340;-52
2024/03/16 08:29:55;;;;;;;;;1.33;0.67;;;;;;;;5084345;27;45729;-52
2024/03/16 08:32:21;;;;;;;;;0.33;0.33;;;;;;;;5082797;27;46469;-52
2024/03/16 08:34:46;;;;;;;;;2.00;2.00;;;;;;;;5091381;27;45770;-52
2024/03/16 08:37:11;;;;;;;;;1.33;1.00;;;;;;;;5098923;27;45361;-55
2024/03/16 08:39:38;;;;;;;;;2.00;0.67;;;;;;;;5095411;27;45416;-50
2024/03/16 08:42:03;;;;;;;;;0.25;0.25;;;;;;;;5096320;27;46505;-51
2024/03/16 08:44:28;;;;;;;;;0.25;0.25;;;;;;;;5088383;27;45260;-51
2024/03/16 08:46:54;;;;;;;;;3.67;1.00;;;;;;;;5098453;27;45346;-50
2024/03/16 08:49:19;;;;;;;;;1.50;1.50;;;;;;;;5090570;27;45370;-51
2024/03/16 08:51:44;;;;;;;;;1.33;0.67;;;;;;;;5089542;27;45498;-51
2024/03/16 08:54:10;;;;;;;;;1.67;1.67;;;;;;;;5083957;27;45659;-51
2024/03/16 08:56:35;;;;;;;;;1.33;0.67;;;;;;;;5083881;27;45394;-53
2024/03/16 08:59:02;;;;;;;;;1.67;1.67;;;;;;;;5088641;27;45453;-48
2024/03/16 09:01:27;;;;;;;;;0.50;0.50;;;;;;;;5098743;27;45428;-51
2024/03/16 09:03:53;;;;;;;;;0.00;0.00;;;;;;;;5081971;27;45806;-51
2024/03/16 09:06:18;;;;;;;;;6.50;0.75;;;;;;;;5083418;27;45375;-51
2024/03/16 09:08:43;;;;;;;;;0.67;0.67;;;;;;;;5090946;27;45449;-51
2024/03/16 09:11:10;;;;;;;;;1.33;1.33;;;;;;;;5082300;27;45469;-51
2024/03/16 09:13:35;;;;;;;;;0.50;0.00;;;;;;;;5090587;27;45535;-51
2024/03/16 09:16:05;;;;;;;;;0.50;0.00;;;;;;;;5099118;27;45288;-52
2024/03/16 09:18:30;;;;;;;;;1.00;1.00;;;;;;;;5093690;27;45357;-50
2024/03/16 09:20:55;;;;;;;;;0.25;0.25;;;;;;;;5086318;27;46387;-51
2024/03/16 09:23:20;;;;;;;;;0.00;0.00;;;;;;;;5079989;27;45421;-51
2024/03/16 09:25:45;;;;;;;;;1.25;0.00;;;;;;;;5096052;27;45282;-51
2024/03/16 09:28:13;;;;;;;;;1.00;1.00;;;;;;;;5089677;27;45656;-49
2024/03/16 09:30:39;;;;;;;;;2.25;1.00;;;;;;;;5090815;27;46297;-52
2024/03/16 09:33:04;;;;;;;;;1.00;1.00;;;;;;;;5080398;27;45285;-50
2024/03/16 09:35:30;;;;;;;;;2.00;1.00;;;;;;;;5091564;27;45303;-51
2024/03/16 09:37:55;;;;;;;;;1.00;1.00;;;;;;;;5090984;27;45613;-50
2024/03/16 09:40:21;;;;;;;;;0.50;0.50;;;;;;;;5095774;27;45424;-51
2024/03/16 09:42:46;;;;;;;;;1.00;1.00;;;;;;;;5090911;27;45648;-50
2024/03/16 09:45:17;;;;;;;;;1.75;1.00;;;;;;;;5081813;27;45470;-53
2024/03/16 09:47:42;;;;;;;;;2.75;2.00;;;;;;;;5083596;27;45453;-52
2024/03/16 09:50:09;;;;;;;;;1.25;1.00;;;;;;;;5089541;27;46274;-52
2024/03/16 09:52:40;;;;;;;;;3.25;1.25;;;;;;;;5067311;27;45531;-50
2024/03/16 09:55:09;;;;;;;;;0.75;0.75;;;;;;;;5059650;28;45400;-51
2024/03/16 09:57:36;;;;;;;;;1.75;1.75;;;;;;;;5079549;28;45804;-53
2024/03/16 10:00:05;;;;;;;;;2.50;2.50;;;;;;;;5078739;27;46638;-49
2024/03/16 10:02:31;;;;;;;;;1.40;0.80;;;;;;;;5075724;27;45289;-51
2024/03/16 10:04:56;;;;;;;;;2.00;2.00;;;;;;;;5077642;27;45354;-52
2024/03/16 10:07:21;;;;;;;;;1.00;1.00;;;;;;;;5079116;27;45700;-54
2024/03/16 10:09:53;;;;;;;;;0.00;0.00;;;;;;;;5079861;27;45667;-54
2024/03/16 10:12:19;;;;;;;;;0.20;0.00;;;;;;;;5076633;27;45391;-54
2024/03/16 10:14:46;;;;;;;;;1.00;1.00;;;;;;;;5079093;27;45210;-53
2024/03/16 10:17:12;;;;;;;;;3.00;2.25;;;;;;;;5077001;27;45884;-50
2024/03/16 10:19:37;;;;;;;;;1.00;1.00;;;;;;;;5076285;27;45384;-54
2024/03/16 10:22:05;;;;;;;;;0.75;0.75;;;;;;;;5077735;27;45689;-54
2024/03/16 10:24:31;;;;;;;;;0.50;0.50;;;;;;;;5079413;27;45361;-51
2024/03/16 10:26:56;;;;;;;;;1.00;1.00;;;;;;;;5077048;27;45461;-50
2024/03/16 10:29:21;;;;;;;;;1.00;1.00;;;;;;;;5078740;27;45302;-49
2024/03/16 10:31:49;;;;;;;;;1.00;1.00;;;;;;;;5077178;27;45226;-52
2024/03/16 10:34:16;;;;;;;;;2.25;1.00;;;;;;;;5076804;27;45359;-53
2024/03/16 10:36:41;;;;;;;;;2.50;1.00;;;;;;;;5077853;27;45306;-51
2024/03/16 10:39:07;;;;;;;;;0.00;0.00;;;;;;;;5077510;27;45688;-53
2024/03/16 10:41:34;;;;;;;;;0.80;0.00;;;;;;;;5078774;27;45406;-54
2024/03/16 10:44:02;;;;;;;;;1.00;1.00;;;;;;;;5079450;27;45382;-54
2024/03/16 10:46:27;;;;;;;;;0.75;0.75;;;;;;;;5079274;27;45203;-54
2024/03/16 10:48:53;;;;;;;;;0.00;0.00;;;;;;;;5079292;27;45151;-53
2024/03/16 10:51:18;;;;;;;;;1.60;1.00;;;;;;;;5068829;28;45281;-54
2024/03/16 10:53:46;;;;;;;;;0.00;0.00;;;;;;;;5079313;27;45318;-53
2024/03/16 10:56:12;;;;;;;;;1.00;0.00;;;;;;;;5078437;27;45439;-53
2024/03/16 10:58:37;;;;;;;;;2.00;2.00;;;;;;;;5079750;27;45537;-53
2024/03/16 11:01:15;;;;;;;;;0.25;0.25;;;;;;;;5078272;27;45429;-53
2024/03/16 11:03:42;;;;;;;;;3.00;0.75;;;;;;;;5071903;27;45468;-53
2024/03/16 11:06:11;;;;;;;;;3.00;0.00;;;;;;;;5074521;27;45244;-57
2024/03/16 11:08:37;;;;;;;;;0.00;0.00;;;;;;;;5072434;27;46352;-57
2024/03/16 11:11:02;;;;;;;;;2.00;0.00;;;;;;;;5072211;27;45359;-56
2024/03/16 11:13:28;;;;;;;;;1.00;1.00;;;;;;;;5072775;27;45447;-56
2024/03/16 11:15:54;;;;;;;;;2.00;2.00;;;;;;;;5065953;27;45675;-57
2024/03/16 11:18:19;;;;;;;;;1.75;0.75;;;;;;;;5072945;27;45408;-57
2024/03/16 11:20:50;;;;;;;;;0.20;0.20;;;;;;;;5062196;27;45890;-56
2024/03/16 11:23:31;;;;;;;;;0.00;0.00;;;;;;;;5070286;27;45299;-57
2024/03/16 11:26:00;;;;;;;;;0.00;0.00;;;;;;;;5080388;27;45337;-57
2024/03/16 11:28:43;;;;;;;;;0.00;0.00;;;;;;;;5076484;27;46352;-57
2024/03/16 11:31:28;;;;;;;;;0.00;0.00;;;;;;;;5079861;27;45280;-57
2024/03/16 11:33:53;;;;;;;;;1.20;0.00;;;;;;;;5070078;27;45615;-57
2024/03/16 11:36:18;;;;;;;;;0.00;0.00;;;;;;;;5073434;27;45374;-57
2024/03/16 11:38:49;;;;;;;;;0.25;0.25;;;;;;;;5079470;27;45650;-57
2024/03/16 11:41:14;;;;;;;;;0.80;0.40;;;;;;;;5085666;27;45393;-57
2024/03/16 11:43:39;;;;;;;;;0.50;0.00;;;;;;;;5075150;27;45469;-57
2024/03/16 11:46:05;;;;;;;;;11.75;11.75;;;;;;;;5086123;27;45401;-57
2024/03/16 11:48:31;;;;;;;;;0.00;0.00;;;;;;;;5086013;27;47171;-57
2024/03/16 11:50:56;;;;;;;;;1.75;1.00;;;;;;;;5088946;27;45349;-57
2024/03/16 11:53:21;;;;;;;;;3.00;3.00;;;;;;;;5094821;27;45325;-57
2024/03/16 11:55:46;;;;;;;;;0.75;0.75;;;;;;;;5090560;27;45438;-57
2024/03/16 11:58:12;;;;;;;;;0.50;0.00;;;;;;;;5094704;27;45471;-57
2024/03/16 12:00:37;;;;;;;;;0.00;0.00;;;;;;;;5089991;27;45290;-57
2024/03/16 12:03:05;;;;;;;;;0.00;0.00;;;;;;;;5092015;27;45180;-57
2024/03/16 12:05:31;;;;;;;;;0.00;0.00;;;;;;;;5086034;27;45447;-57
2024/03/16 12:07:56;;;;;;;;;0.00;0.00;;;;;;;;5093148;27;48198;-57
2024/03/16 12:10:25;;;;;;;;;0.00;0.00;;;;;;;;5087346;27;45243;-57
2024/03/16 12:12:50;;;;;;;;;0.00;0.00;;;;;;;;5084834;27;46489;-57
2024/03/16 12:15:17;;;;;;;;;0.00;0.00;;;;;;;;5087347;27;45456;-57
2024/03/16 12:17:42;;;;;;;;;1.00;0.20;;;;;;;;5092881;27;46838;-56
2024/03/16 12:20:09;;;;;;;;;1.00;0.00;;;;;;;;5081553;27;45400;-57
2024/03/16 12:22:34;;;;;;;;;3.25;3.25;;;;;;;;5074391;27;45324;-56
2024/03/16 12:24:59;;;;;;;;;0.00;0.00;;;;;;;;5095762;27;45573;-57
2024/03/16 12:27:25;;;;;;;;;1.25;0.00;;;;;;;;5088244;27;45277;-56
2024/03/16 12:29:50;;;;;;;;;6.25;5.25;;;;;;;;5094410;27;45484;-57
2024/03/16 12:32:15;;;;;;;;;1.50;0.50;;;;;;;;5098833;27;45303;-57
2024/03/16 12:34:40;;;;;;;;;0.00;0.00;;;;;;;;5084758;27;45238;-57
2024/03/16 12:37:07;;;;;;;;;0.00;0.00;;;;;;;;5088037;27;45400;-56
2024/03/16 12:39:33;;;;;;;;;0.00;0.00;;;;;;;;5095153;27;45394;-57
2024/03/16 12:41:58;;;;;;;;;1.00;0.00;;;;;;;;5099358;27;45571;-56
2024/03/16 12:44:23;;;;;;;;;2.00;0.50;;;;;;;;5075860;27;45705;-56
2024/03/16 12:46:49;;;;;;;;;0.50;0.50;;;;;;;;5087697;27;45514;-56
2024/03/16 12:49:14;;;;;;;;;1.75;1.25;;;;;;;;5090785;27;45377;-55
2024/03/16 12:51:39;;;;;;;;;1.00;1.00;;;;;;;;5099554;27;45389;-56
2024/03/16 12:54:07;;;;;;;;;0.75;0.75;;;;;;;;5094665;27;45356;-56
2024/03/16 12:56:37;;;;;;;;;1.50;1.00;;;;;;;;5099211;27;46529;-55
2024/03/16 12:59:04;;;;;;;;;1.75;1.75;;;;;;;;5093070;27;45440;-56
2024/03/16 13:01:31;;;;;;;;;1.25;1.25;;;;;;;;5084551;27;45335;-56
2024/03/16 13:03:56;;;;;;;;;0.50;0.50;;;;;;;;5088494;27;45294;-58
2024/03/16 13:06:21;;;;;;;;;1.00;1.00;;;;;;;;5087730;27;46262;-57
2024/03/16 13:08:46;;;;;;;;;3.50;2.50;;;;;;;;5080589;27;45275;-56
2024/03/16 13:11:12;;;;;;;;;2.75;2.75;;;;;;;;5093620;27;45290;-56
2024/03/16 13:13:37;;;;;;;;;2.00;1.00;;;;;;;;5092073;27;45308;-56
2024/03/16 13:16:02;;;;;;;;;2.00;1.00;;;;;;;;5085288;27;45601;-56
2024/03/16 13:18:30;;;;;;;;;2.75;1.50;;;;;;;;5079431;27;45541;-56
2024/03/16 13:20:55;;;;;;;;;1.75;1.75;;;;;;;;5089084;27;45275;-56
2024/03/16 13:23:21;;;;;;;;;1.50;0.75;;;;;;;;5080329;27;45208;-56
2024/03/16 13:25:46;;;;;;;;;0.25;0.25;;;;;;;;5090423;27;45526;-55
2024/03/16 13:28:13;;;;;;;;;0.50;0.50;;;;;;;;5079986;27;45625;-55
2024/03/16 13:30:38;;;;;;;;;0.75;0.75;;;;;;;;5087401;27;45394;-55
2024/03/16 13:33:04;;;;;;;;;1.00;1.00;;;;;;;;5085895;27;45512;-55
2024/03/16 13:35:29;;;;;;;;;0.00;0.00;;;;;;;;5086854;27;45952;-56
2024/03/16 13:37:54;;;;;;;;;0.25;0.25;;;;;;;;5091078;27;45345;-56
2024/03/16 13:40:19;;;;;;;;;3.00;2.00;;;;;;;;5097752;27;45364;-56
2024/03/16 13:42:45;;;;;;;;;0.75;0.75;;;;;;;;5094600;27;45373;-55
2024/03/16 13:45:11;;;;;;;;;2.25;1.00;;;;;;;;5090835;27;45488;-55
2024/03/16 13:47:36;;;;;;;;;1.50;1.00;;;;;;;;5095344;27;45359;-56
2024/03/16 13:50:04;;;;;;;;;0.25;0.25;;;;;;;;5096514;27;45522;-55
2024/03/16 13:52:29;;;;;;;;;1.00;1.00;;;;;;;;5091614;27;45442;-55
2024/03/16 13:54:55;;;;;;;;;3.25;2.00;;;;;;;;5098136;27;46199;-55
2024/03/16 13:57:20;;;;;;;;;1.00;1.00;;;;;;;;5093645;27;45432;-55
2024/03/16 13:59:45;;;;;;;;;1.50;1.00;;;;;;;;5098509;27;45378;-56
2024/03/16 14:02:14;;;;;;;;;2.50;1.00;;;;;;;;5095476;27;45532;-56
2024/03/16 14:04:39;;;;;;;;;2.25;1.00;;;;;;;;5091852;27;46100;-55
2024/03/16 14:07:04;;;;;;;;;1.00;1.00;;;;;;;;5091520;27;45472;-55
2024/03/16 14:09:29;;;;;;;;;1.00;1.00;;;;;;;;5087911;27;45227;-54
2024/03/16 14:11:55;;;;;;;;;1.50;1.50;;;;;;;;5086267;27;45577;-54
2024/03/16 14:14:20;;;;;;;;;1.00;1.00;;;;;;;;5097667;27;46088;-55
2024/03/16 14:16:45;;;;;;;;;3.00;0.50;;;;;;;;5095579;27;45543;-55
2024/03/16 14:19:12;;;;;;;;;1.00;1.00;;;;;;;;5077677;27;45615;-54
2024/03/16 14:21:37;;;;;;;;;1.25;1.25;;;;;;;;5080511;27;45516;-56
2024/03/16 14:24:02;;;;;;;;;1.50;1.50;;;;;;;;5084146;27;45480;-55
2024/03/16 14:26:28;;;;;;;;;0.00;0.00;;;;;;;;5084314;27;45191;-54
2024/03/16 14:28:53;;;;;;;;;1.00;1.00;;;;;;;;5094724;27;45210;-56
2024/03/16 14:31:19;;;;;;;;;0.00;0.00;;;;;;;;5092815;27;45350;-54
2024/03/16 14:33:44;;;;;;;;;1.00;1.00;;;;;;;;5094315;27;45864;-53
2024/03/16 14:36:09;;;;;;;;;2.00;2.00;;;;;;;;5086926;27;45559;-54
2024/03/16 14:38:36;;;;;;;;;1.00;1.00;;;;;;;;5095108;27;45847;-54